sensor_id;sensor_type;location;lat;lon;timestamp;P1;durP1;ratioP1;P2;durP2;ratioP2
76228;SDS011;65021;53.174;18.160;2023-05-24T00:02:10;12.00;;;6.60;;
76228;SDS011;65021;53.174;18.160;2023-05-24T00:04:39;11.80;;;5.90;;
76228;SDS011;65021;53.174;18.160;2023-05-24T00:07:06;9.70;;;6.00;;
76228;SDS011;65021;53.174;18.160;2023-05-24T00:09:33;9.60;;;5.40;;
76228;SDS011;65021;53.174;18.160;2023-05-24T00:11:59;12.00;;;6.30;;
76228;SDS011;65021;53.174;18.160;2023-05-24T00:14:26;12.30;;;7.60;;
76228;SDS011;65021;53.174;18.160;2023-05-24T00:16:52;9.20;;;4.90;;
76228;SDS011;65021;53.174;18.160;2023-05-24T00:19:19;11.90;;;6.70;;
76228;SDS011;65021;53.174;18.160;2023-05-24T00:21:47;11.20;;;6.10;;
76228;SDS011;65021;53.174;18.160;2023-05-24T00:24:14;8.60;;;5.50;;
76228;SDS011;65021;53.174;18.160;2023-05-24T00:26:42;11.40;;;5.70;;
76228;SDS011;65021;53.174;18.160;2023-05-24T00:29:08;10.90;;;5.20;;
76228;SDS011;65021;53.174;18.160;2023-05-24T00:31:35;9.80;;;5.80;;
76228;SDS011;65021;53.174;18.160;2023-05-24T00:34:02;8.60;;;5.00;;
76228;SDS011;65021;53.174;18.160;2023-05-24T00:36:28;11.10;;;5.60;;
76228;SDS011;65021;53.174;18.160;2023-05-24T00:38:55;13.60;;;6.90;;
76228;SDS011;65021;53.174;18.160;2023-05-24T00:41:21;10.90;;;6.40;;
76228;SDS011;65021;53.174;18.160;2023-05-24T00:43:48;11.50;;;7.60;;
76228;SDS011;65021;53.174;18.160;2023-05-24T00:46:15;10.10;;;7.00;;
76228;SDS011;65021;53.174;18.160;2023-05-24T00:51:11;10.30;;;5.20;;
76228;SDS011;65021;53.174;18.160;2023-05-24T00:53:38;12.30;;;6.30;;
76228;SDS011;65021;53.174;18.160;2023-05-24T00:56:06;12.20;;;6.90;;
76228;SDS011;65021;53.174;18.160;2023-05-24T00:58:33;11.70;;;6.50;;
76228;SDS011;65021;53.174;18.160;2023-05-24T01:01:01;9.20;;;6.00;;
76228;SDS011;65021;53.174;18.160;2023-05-24T01:03:28;11.80;;;5.30;;
76228;SDS011;65021;53.174;18.160;2023-05-24T01:05:55;11.60;;;6.50;;
76228;SDS011;65021;53.174;18.160;2023-05-24T01:11:20;9.80;;;6.20;;
76228;SDS011;65021;53.174;18.160;2023-05-24T01:14:21;10.10;;;5.70;;
76228;SDS011;65021;53.174;18.160;2023-05-24T01:19:55;10.70;;;5.30;;
76228;SDS011;65021;53.174;18.160;2023-05-24T01:25:03;12.20;;;6.30;;
76228;SDS011;65021;53.174;18.160;2023-05-24T01:27:38;9.80;;;5.60;;
76228;SDS011;65021;53.174;18.160;2023-05-24T01:30:05;11.80;;;6.20;;
76228;SDS011;65021;53.174;18.160;2023-05-24T01:32:33;10.60;;;5.90;;
76228;SDS011;65021;53.174;18.160;2023-05-24T01:34:59;12.00;;;6.50;;
76228;SDS011;65021;53.174;18.160;2023-05-24T01:37:26;8.40;;;4.30;;
76228;SDS011;65021;53.174;18.160;2023-05-24T01:39:52;10.50;;;5.20;;
76228;SDS011;65021;53.174;18.160;2023-05-24T01:47:41;9.80;;;5.20;;
76228;SDS011;65021;53.174;18.160;2023-05-24T01:50:41;9.90;;;5.10;;
76228;SDS011;65021;53.174;18.160;2023-05-24T01:53:14;11.90;;;6.60;;
76228;SDS011;65021;53.174;18.160;2023-05-24T01:55:47;12.40;;;6.20;;
76228;SDS011;65021;53.174;18.160;2023-05-24T01:58:15;10.00;;;5.80;;
76228;SDS011;65021;53.174;18.160;2023-05-24T02:00:42;10.50;;;6.40;;
76228;SDS011;65021;53.174;18.160;2023-05-24T02:03:09;11.20;;;6.10;;
76228;SDS011;65021;53.174;18.160;2023-05-24T02:05:41;10.00;;;6.70;;
76228;SDS011;65021;53.174;18.160;2023-05-24T02:08:09;14.50;;;8.30;;
76228;SDS011;65021;53.174;18.160;2023-05-24T02:10:36;9.20;;;5.80;;
76228;SDS011;65021;53.174;18.160;2023-05-24T02:13:04;14.30;;;8.70;;
76228;SDS011;65021;53.174;18.160;2023-05-24T02:15:32;11.50;;;7.40;;
76228;SDS011;65021;53.174;18.160;2023-05-24T02:18:00;11.10;;;6.70;;
76228;SDS011;65021;53.174;18.160;2023-05-24T02:20:27;13.30;;;8.80;;
76228;SDS011;65021;53.174;18.160;2023-05-24T02:22:57;9.50;;;5.40;;
76228;SDS011;65021;53.174;18.160;2023-05-24T02:25:23;10.50;;;6.10;;
76228;SDS011;65021;53.174;18.160;2023-05-24T02:27:50;11.90;;;6.80;;
76228;SDS011;65021;53.174;18.160;2023-05-24T02:30:17;12.00;;;7.00;;
76228;SDS011;65021;53.174;18.160;2023-05-24T02:32:43;14.30;;;8.10;;
76228;SDS011;65021;53.174;18.160;2023-05-24T02:35:10;12.20;;;6.90;;
76228;SDS011;65021;53.174;18.160;2023-05-24T02:37:37;10.50;;;7.20;;
76228;SDS011;65021;53.174;18.160;2023-05-24T02:40:03;9.90;;;6.70;;
76228;SDS011;65021;53.174;18.160;2023-05-24T02:42:30;11.00;;;6.00;;
76228;SDS011;65021;53.174;18.160;2023-05-24T02:44:57;11.50;;;7.30;;
76228;SDS011;65021;53.174;18.160;2023-05-24T02:47:23;13.00;;;8.10;;
76228;SDS011;65021;53.174;18.160;2023-05-24T02:49:52;15.50;;;8.90;;
76228;SDS011;65021;53.174;18.160;2023-05-24T02:52:19;12.10;;;6.90;;
76228;SDS011;65021;53.174;18.160;2023-05-24T02:54:50;13.20;;;8.80;;
76228;SDS011;65021;53.174;18.160;2023-05-24T02:57:17;12.30;;;8.30;;
76228;SDS011;65021;53.174;18.160;2023-05-24T02:59:44;11.70;;;7.70;;
76228;SDS011;65021;53.174;18.160;2023-05-24T03:02:10;11.50;;;6.60;;
76228;SDS011;65021;53.174;18.160;2023-05-24T03:04:40;12.70;;;7.50;;
76228;SDS011;65021;53.174;18.160;2023-05-24T03:07:07;11.50;;;6.90;;
76228;SDS011;65021;53.174;18.160;2023-05-24T03:09:33;10.90;;;6.10;;
76228;SDS011;65021;53.174;18.160;2023-05-24T03:12:09;11.80;;;6.90;;
76228;SDS011;65021;53.174;18.160;2023-05-24T03:14:35;12.00;;;7.10;;
76228;SDS011;65021;53.174;18.160;2023-05-24T03:17:02;9.70;;;5.80;;
76228;SDS011;65021;53.174;18.160;2023-05-24T03:19:29;9.10;;;5.40;;
76228;SDS011;65021;53.174;18.160;2023-05-24T03:21:55;10.20;;;5.80;;
76228;SDS011;65021;53.174;18.160;2023-05-24T03:24:22;8.60;;;6.00;;
76228;SDS011;65021;53.174;18.160;2023-05-24T03:26:48;12.20;;;7.30;;
76228;SDS011;65021;53.174;18.160;2023-05-24T03:29:15;9.20;;;6.10;;
76228;SDS011;65021;53.174;18.160;2023-05-24T03:31:42;9.90;;;7.30;;
76228;SDS011;65021;53.174;18.160;2023-05-24T03:34:08;13.10;;;6.40;;
76228;SDS011;65021;53.174;18.160;2023-05-24T03:36:35;8.40;;;4.70;;
76228;SDS011;65021;53.174;18.160;2023-05-24T03:39:02;9.20;;;6.20;;
76228;SDS011;65021;53.174;18.160;2023-05-24T03:41:29;8.30;;;4.70;;
76228;SDS011;65021;53.174;18.160;2023-05-24T03:43:56;10.40;;;6.20;;
76228;SDS011;65021;53.174;18.160;2023-05-24T03:46:22;7.90;;;4.70;;
76228;SDS011;65021;53.174;18.160;2023-05-24T03:48:49;10.30;;;6.70;;
76228;SDS011;65021;53.174;18.160;2023-05-24T03:51:16;10.60;;;6.20;;
76228;SDS011;65021;53.174;18.160;2023-05-24T03:53:42;10.80;;;6.30;;
76228;SDS011;65021;53.174;18.160;2023-05-24T03:56:09;7.30;;;4.80;;
76228;SDS011;65021;53.174;18.160;2023-05-24T03:58:36;8.90;;;5.60;;
76228;SDS011;65021;53.174;18.160;2023-05-24T04:01:02;10.50;;;6.80;;
76228;SDS011;65021;53.174;18.160;2023-05-24T04:03:29;9.10;;;5.80;;
76228;SDS011;65021;53.174;18.160;2023-05-24T04:05:59;9.40;;;6.00;;
76228;SDS011;65021;53.174;18.160;2023-05-24T04:08:25;11.10;;;6.40;;
76228;SDS011;65021;53.174;18.160;2023-05-24T04:10:52;9.10;;;5.00;;
76228;SDS011;65021;53.174;18.160;2023-05-24T04:13:18;9.60;;;5.60;;
76228;SDS011;65021;53.174;18.160;2023-05-24T04:15:45;9.60;;;5.80;;
76228;SDS011;65021;53.174;18.160;2023-05-24T04:18:12;9.70;;;4.50;;
76228;SDS011;65021;53.174;18.160;2023-05-24T04:20:39;8.00;;;5.00;;
76228;SDS011;65021;53.174;18.160;2023-05-24T04:23:06;10.50;;;5.80;;
76228;SDS011;65021;53.174;18.160;2023-05-24T04:25:32;9.80;;;6.30;;
76228;SDS011;65021;53.174;18.160;2023-05-24T04:27:59;10.00;;;6.00;;
76228;SDS011;65021;53.174;18.160;2023-05-24T04:30:27;9.00;;;5.40;;
76228;SDS011;65021;53.174;18.160;2023-05-24T04:32:55;11.40;;;6.50;;
76228;SDS011;65021;53.174;18.160;2023-05-24T04:35:23;6.70;;;4.20;;
76228;SDS011;65021;53.174;18.160;2023-05-24T04:37:51;8.80;;;5.40;;
76228;SDS011;65021;53.174;18.160;2023-05-24T04:40:17;9.20;;;5.70;;
76228;SDS011;65021;53.174;18.160;2023-05-24T04:42:48;10.00;;;5.50;;
76228;SDS011;65021;53.174;18.160;2023-05-24T04:45:15;12.30;;;7.10;;
76228;SDS011;65021;53.174;18.160;2023-05-24T04:47:42;10.30;;;6.90;;
76228;SDS011;65021;53.174;18.160;2023-05-24T04:50:08;15.10;;;6.40;;
76228;SDS011;65021;53.174;18.160;2023-05-24T04:52:36;9.60;;;5.80;;
76228;SDS011;65021;53.174;18.160;2023-05-24T04:55:02;9.90;;;5.90;;
76228;SDS011;65021;53.174;18.160;2023-05-24T04:57:29;9.90;;;5.90;;
76228;SDS011;65021;53.174;18.160;2023-05-24T04:59:56;10.70;;;6.30;;
76228;SDS011;65021;53.174;18.160;2023-05-24T05:02:23;8.10;;;5.50;;
76228;SDS011;65021;53.174;18.160;2023-05-24T05:04:51;10.00;;;6.20;;
76228;SDS011;65021;53.174;18.160;2023-05-24T05:07:18;8.60;;;5.30;;
76228;SDS011;65021;53.174;18.160;2023-05-24T05:09:45;8.90;;;5.40;;
76228;SDS011;65021;53.174;18.160;2023-05-24T05:12:11;8.40;;;5.90;;
76228;SDS011;65021;53.174;18.160;2023-05-24T05:14:38;10.70;;;6.30;;
76228;SDS011;65021;53.174;18.160;2023-05-24T05:17:05;6.20;;;3.80;;
76228;SDS011;65021;53.174;18.160;2023-05-24T05:19:31;12.50;;;7.40;;
76228;SDS011;65021;53.174;18.160;2023-05-24T05:21:58;10.00;;;6.30;;
76228;SDS011;65021;53.174;18.160;2023-05-24T05:24:24;10.20;;;6.50;;
76228;SDS011;65021;53.174;18.160;2023-05-24T05:26:51;10.10;;;6.30;;
76228;SDS011;65021;53.174;18.160;2023-05-24T05:29:17;13.40;;;7.70;;
76228;SDS011;65021;53.174;18.160;2023-05-24T05:31:45;13.70;;;6.80;;
76228;SDS011;65021;53.174;18.160;2023-05-24T05:34:12;10.90;;;7.60;;
76228;SDS011;65021;53.174;18.160;2023-05-24T05:36:38;12.50;;;7.60;;
76228;SDS011;65021;53.174;18.160;2023-05-24T05:39:06;10.50;;;7.20;;
76228;SDS011;65021;53.174;18.160;2023-05-24T05:41:37;10.70;;;6.90;;
76228;SDS011;65021;53.174;18.160;2023-05-24T05:44:04;12.40;;;7.30;;
76228;SDS011;65021;53.174;18.160;2023-05-24T05:46:31;12.70;;;7.90;;
76228;SDS011;65021;53.174;18.160;2023-05-24T05:48:58;9.60;;;5.40;;
76228;SDS011;65021;53.174;18.160;2023-05-24T05:51:25;10.30;;;6.80;;
76228;SDS011;65021;53.174;18.160;2023-05-24T05:53:52;10.70;;;6.50;;
76228;SDS011;65021;53.174;18.160;2023-05-24T05:56:18;11.20;;;6.80;;
76228;SDS011;65021;53.174;18.160;2023-05-24T05:58:45;11.00;;;6.80;;
76228;SDS011;65021;53.174;18.160;2023-05-24T06:01:12;11.30;;;8.10;;
76228;SDS011;65021;53.174;18.160;2023-05-24T06:03:38;11.20;;;8.20;;
76228;SDS011;65021;53.174;18.160;2023-05-24T06:06:05;14.60;;;8.40;;
76228;SDS011;65021;53.174;18.160;2023-05-24T06:08:31;13.30;;;8.00;;
76228;SDS011;65021;53.174;18.160;2023-05-24T06:11:00;10.80;;;6.80;;
76228;SDS011;65021;53.174;18.160;2023-05-24T06:13:27;14.00;;;9.50;;
76228;SDS011;65021;53.174;18.160;2023-05-24T06:15:54;13.50;;;8.20;;
76228;SDS011;65021;53.174;18.160;2023-05-24T06:18:20;11.90;;;8.10;;
76228;SDS011;65021;53.174;18.160;2023-05-24T06:20:47;13.20;;;8.50;;
76228;SDS011;65021;53.174;18.160;2023-05-24T06:23:14;11.00;;;7.40;;
76228;SDS011;65021;53.174;18.160;2023-05-24T06:25:41;14.10;;;9.40;;
76228;SDS011;65021;53.174;18.160;2023-05-24T06:28:09;14.30;;;8.50;;
76228;SDS011;65021;53.174;18.160;2023-05-24T06:30:35;15.80;;;9.20;;
76228;SDS011;65021;53.174;18.160;2023-05-24T06:33:02;9.00;;;4.80;;
76228;SDS011;65021;53.174;18.160;2023-05-24T06:35:29;13.40;;;9.40;;
76228;SDS011;65021;53.174;18.160;2023-05-24T06:37:55;13.10;;;8.10;;
76228;SDS011;65021;53.174;18.160;2023-05-24T06:40:23;13.00;;;9.00;;
76228;SDS011;65021;53.174;18.160;2023-05-24T06:42:49;15.40;;;9.60;;
76228;SDS011;65021;53.174;18.160;2023-05-24T06:45:16;12.80;;;7.30;;
76228;SDS011;65021;53.174;18.160;2023-05-24T06:47:42;15.50;;;9.70;;
76228;SDS011;65021;53.174;18.160;2023-05-24T06:50:09;14.80;;;9.40;;
76228;SDS011;65021;53.174;18.160;2023-05-24T06:52:36;13.60;;;8.90;;
76228;SDS011;65021;53.174;18.160;2023-05-24T06:55:02;13.50;;;9.30;;
76228;SDS011;65021;53.174;18.160;2023-05-24T06:57:29;16.50;;;10.30;;
76228;SDS011;65021;53.174;18.160;2023-05-24T06:59:56;13.90;;;9.60;;
76228;SDS011;65021;53.174;18.160;2023-05-24T07:02:23;12.80;;;9.00;;
76228;SDS011;65021;53.174;18.160;2023-05-24T07:04:52;14.70;;;9.60;;
76228;SDS011;65021;53.174;18.160;2023-05-24T07:07:19;14.80;;;9.80;;
76228;SDS011;65021;53.174;18.160;2023-05-24T07:09:46;15.00;;;10.50;;
76228;SDS011;65021;53.174;18.160;2023-05-24T07:12:12;16.80;;;10.20;;
76228;SDS011;65021;53.174;18.160;2023-05-24T07:14:39;14.50;;;10.50;;
76228;SDS011;65021;53.174;18.160;2023-05-24T07:17:05;13.80;;;8.60;;
76228;SDS011;65021;53.174;18.160;2023-05-24T07:19:32;12.30;;;8.40;;
76228;SDS011;65021;53.174;18.160;2023-05-24T07:22:01;14.60;;;9.30;;
76228;SDS011;65021;53.174;18.160;2023-05-24T07:24:27;15.50;;;9.10;;
76228;SDS011;65021;53.174;18.160;2023-05-24T07:26:54;12.50;;;8.30;;
76228;SDS011;65021;53.174;18.160;2023-05-24T07:29:24;12.40;;;7.40;;
76228;SDS011;65021;53.174;18.160;2023-05-24T07:31:51;14.10;;;8.40;;
76228;SDS011;65021;53.174;18.160;2023-05-24T07:34:18;15.10;;;9.20;;
76228;SDS011;65021;53.174;18.160;2023-05-24T07:39:14;11.40;;;7.60;;
76228;SDS011;65021;53.174;18.160;2023-05-24T07:41:41;14.20;;;9.00;;
76228;SDS011;65021;53.174;18.160;2023-05-24T07:44:08;11.90;;;7.30;;
76228;SDS011;65021;53.174;18.160;2023-05-24T07:46:34;16.20;;;9.50;;
76228;SDS011;65021;53.174;18.160;2023-05-24T07:49:01;12.70;;;8.60;;
76228;SDS011;65021;53.174;18.160;2023-05-24T07:51:27;10.80;;;6.80;;
76228;SDS011;65021;53.174;18.160;2023-05-24T07:53:54;8.80;;;5.20;;
76228;SDS011;65021;53.174;18.160;2023-05-24T07:56:21;16.00;;;10.20;;
76228;SDS011;65021;53.174;18.160;2023-05-24T07:58:47;10.60;;;7.20;;
76228;SDS011;65021;53.174;18.160;2023-05-24T08:01:16;12.20;;;8.30;;
76228;SDS011;65021;53.174;18.160;2023-05-24T08:03:44;13.10;;;9.00;;
76228;SDS011;65021;53.174;18.160;2023-05-24T08:06:10;12.80;;;8.10;;
76228;SDS011;65021;53.174;18.160;2023-05-24T08:08:38;13.10;;;7.90;;
76228;SDS011;65021;53.174;18.160;2023-05-24T08:11:06;10.60;;;5.10;;
76228;SDS011;65021;53.174;18.160;2023-05-24T08:13:33;9.70;;;6.10;;
76228;SDS011;65021;53.174;18.160;2023-05-24T08:15:59;11.30;;;6.40;;
76228;SDS011;65021;53.174;18.160;2023-05-24T08:18:26;8.30;;;4.90;;
76228;SDS011;65021;53.174;18.160;2023-05-24T08:20:52;13.00;;;8.80;;
76228;SDS011;65021;53.174;18.160;2023-05-24T08:23:19;10.60;;;6.50;;
76228;SDS011;65021;53.174;18.160;2023-05-24T08:25:47;8.70;;;5.40;;
76228;SDS011;65021;53.174;18.160;2023-05-24T08:28:13;11.00;;;7.20;;
76228;SDS011;65021;53.174;18.160;2023-05-24T08:30:41;14.30;;;8.50;;
76228;SDS011;65021;53.174;18.160;2023-05-24T08:33:08;10.60;;;6.90;;
76228;SDS011;65021;53.174;18.160;2023-05-24T08:35:35;9.00;;;5.80;;
76228;SDS011;65021;53.174;18.160;2023-05-24T08:38:02;10.00;;;6.60;;
76228;SDS011;65021;53.174;18.160;2023-05-24T08:40:28;9.40;;;7.10;;
76228;SDS011;65021;53.174;18.160;2023-05-24T08:42:55;10.10;;;5.20;;
76228;SDS011;65021;53.174;18.160;2023-05-24T08:45:25;10.50;;;7.10;;
76228;SDS011;65021;53.174;18.160;2023-05-24T08:47:56;9.90;;;6.70;;
76228;SDS011;65021;53.174;18.160;2023-05-24T08:50:24;10.10;;;6.90;;
76228;SDS011;65021;53.174;18.160;2023-05-24T08:52:51;9.90;;;7.00;;
76228;SDS011;65021;53.174;18.160;2023-05-24T08:55:19;9.30;;;5.90;;
76228;SDS011;65021;53.174;18.160;2023-05-24T08:57:46;8.50;;;5.80;;
76228;SDS011;65021;53.174;18.160;2023-05-24T09:00:14;8.80;;;6.30;;
76228;SDS011;65021;53.174;18.160;2023-05-24T09:02:41;9.40;;;6.60;;
76228;SDS011;65021;53.174;18.160;2023-05-24T09:05:11;9.00;;;5.60;;
76228;SDS011;65021;53.174;18.160;2023-05-24T09:07:44;8.80;;;5.40;;
76228;SDS011;65021;53.174;18.160;2023-05-24T09:10:11;11.70;;;7.20;;
76228;SDS011;65021;53.174;18.160;2023-05-24T09:12:38;7.10;;;4.70;;
76228;SDS011;65021;53.174;18.160;2023-05-24T09:15:07;13.90;;;7.20;;
76228;SDS011;65021;53.174;18.160;2023-05-24T09:17:35;8.50;;;6.40;;
76228;SDS011;65021;53.174;18.160;2023-05-24T09:20:02;10.00;;;7.50;;
76228;SDS011;65021;53.174;18.160;2023-05-24T09:22:31;8.00;;;4.80;;
76228;SDS011;65021;53.174;18.160;2023-05-24T09:25:00;8.40;;;5.80;;
76228;SDS011;65021;53.174;18.160;2023-05-24T09:27:27;6.50;;;3.10;;
76228;SDS011;65021;53.174;18.160;2023-05-24T09:29:54;10.50;;;6.30;;
76228;SDS011;65021;53.174;18.160;2023-05-24T09:32:21;10.10;;;7.10;;
76228;SDS011;65021;53.174;18.160;2023-05-24T09:34:52;9.80;;;6.90;;
76228;SDS011;65021;53.174;18.160;2023-05-24T09:37:21;8.90;;;6.20;;
76228;SDS011;65021;53.174;18.160;2023-05-24T09:39:51;11.70;;;6.80;;
76228;SDS011;65021;53.174;18.160;2023-05-24T09:42:19;9.70;;;6.20;;
76228;SDS011;65021;53.174;18.160;2023-05-24T09:47:30;10.10;;;5.90;;
76228;SDS011;65021;53.174;18.160;2023-05-24T09:49:58;7.40;;;4.60;;
76228;SDS011;65021;53.174;18.160;2023-05-24T09:52:25;9.00;;;5.80;;
76228;SDS011;65021;53.174;18.160;2023-05-24T09:54:52;9.10;;;6.10;;
76228;SDS011;65021;53.174;18.160;2023-05-24T09:57:19;6.20;;;3.90;;
76228;SDS011;65021;53.174;18.160;2023-05-24T09:59:49;8.50;;;5.40;;
76228;SDS011;65021;53.174;18.160;2023-05-24T10:02:16;8.60;;;4.10;;
76228;SDS011;65021;53.174;18.160;2023-05-24T10:04:45;8.80;;;5.40;;
76228;SDS011;65021;53.174;18.160;2023-05-24T10:07:13;11.20;;;6.20;;
76228;SDS011;65021;53.174;18.160;2023-05-24T10:09:41;8.60;;;4.90;;
76228;SDS011;65021;53.174;18.160;2023-05-24T10:12:09;8.40;;;5.70;;
76228;SDS011;65021;53.174;18.160;2023-05-24T10:14:37;7.90;;;5.50;;
76228;SDS011;65021;53.174;18.160;2023-05-24T10:17:05;9.10;;;6.20;;
76228;SDS011;65021;53.174;18.160;2023-05-24T10:19:35;9.30;;;6.30;;
76228;SDS011;65021;53.174;18.160;2023-05-24T10:22:06;7.80;;;5.00;;
76228;SDS011;65021;53.174;18.160;2023-05-24T10:24:45;9.40;;;6.40;;
76228;SDS011;65021;53.174;18.160;2023-05-24T10:27:14;8.20;;;5.10;;
76228;SDS011;65021;53.174;18.160;2023-05-24T10:29:53;8.10;;;5.30;;
76228;SDS011;65021;53.174;18.160;2023-05-24T10:32:26;9.20;;;6.00;;
76228;SDS011;65021;53.174;18.160;2023-05-24T10:34:57;7.40;;;5.10;;
76228;SDS011;65021;53.174;18.160;2023-05-24T10:37:25;7.30;;;3.80;;
76228;SDS011;65021;53.174;18.160;2023-05-24T10:39:52;6.60;;;4.10;;
76228;SDS011;65021;53.174;18.160;2023-05-24T10:42:19;6.90;;;4.20;;
76228;SDS011;65021;53.174;18.160;2023-05-24T10:44:46;6.60;;;4.20;;
76228;SDS011;65021;53.174;18.160;2023-05-24T10:47:13;8.20;;;5.30;;
76228;SDS011;65021;53.174;18.160;2023-05-24T10:52:16;9.00;;;4.90;;
76228;SDS011;65021;53.174;18.160;2023-05-24T10:57:33;7.90;;;5.00;;
76228;SDS011;65021;53.174;18.160;2023-05-24T11:02:48;7.80;;;4.70;;
76228;SDS011;65021;53.174;18.160;2023-05-24T11:05:15;8.00;;;5.10;;
76228;SDS011;65021;53.174;18.160;2023-05-24T11:07:42;8.30;;;5.50;;
76228;SDS011;65021;53.174;18.160;2023-05-24T11:10:15;8.00;;;4.70;;
76228;SDS011;65021;53.174;18.160;2023-05-24T11:12:42;6.10;;;3.60;;
76228;SDS011;65021;53.174;18.160;2023-05-24T11:15:10;8.80;;;5.30;;
76228;SDS011;65021;53.174;18.160;2023-05-24T11:20:34;9.00;;;5.80;;
76228;SDS011;65021;53.174;18.160;2023-05-24T11:23:04;8.90;;;5.50;;
76228;SDS011;65021;53.174;18.160;2023-05-24T11:25:31;7.40;;;4.90;;
76228;SDS011;65021;53.174;18.160;2023-05-24T11:27:58;8.80;;;6.00;;
76228;SDS011;65021;53.174;18.160;2023-05-24T11:30:27;8.40;;;4.20;;
76228;SDS011;65021;53.174;18.160;2023-05-24T11:32:54;7.30;;;4.90;;
76228;SDS011;65021;53.174;18.160;2023-05-24T11:35:22;6.50;;;4.70;;
76228;SDS011;65021;53.174;18.160;2023-05-24T11:37:53;7.30;;;5.40;;
76228;SDS011;65021;53.174;18.160;2023-05-24T11:40:19;6.60;;;4.70;;
76228;SDS011;65021;53.174;18.160;2023-05-24T11:42:46;7.80;;;5.40;;
76228;SDS011;65021;53.174;18.160;2023-05-24T11:45:12;7.10;;;4.30;;
76228;SDS011;65021;53.174;18.160;2023-05-24T11:47:40;7.00;;;4.80;;
76228;SDS011;65021;53.174;18.160;2023-05-24T11:50:07;8.00;;;5.20;;
76228;SDS011;65021;53.174;18.160;2023-05-24T11:52:37;6.80;;;4.60;;
76228;SDS011;65021;53.174;18.160;2023-05-24T11:55:05;7.10;;;4.80;;
76228;SDS011;65021;53.174;18.160;2023-05-24T11:57:36;6.60;;;4.50;;
76228;SDS011;65021;53.174;18.160;2023-05-24T12:00:06;6.90;;;5.00;;
76228;SDS011;65021;53.174;18.160;2023-05-24T12:02:42;6.20;;;3.50;;
76228;SDS011;65021;53.174;18.160;2023-05-24T12:05:09;7.30;;;5.10;;
76228;SDS011;65021;53.174;18.160;2023-05-24T12:07:37;7.40;;;5.20;;
76228;SDS011;65021;53.174;18.160;2023-05-24T12:10:03;5.90;;;4.00;;
76228;SDS011;65021;53.174;18.160;2023-05-24T12:12:32;7.00;;;4.60;;
76228;SDS011;65021;53.174;18.160;2023-05-24T12:14:59;8.10;;;5.50;;
76228;SDS011;65021;53.174;18.160;2023-05-24T12:17:25;5.70;;;3.30;;
76228;SDS011;65021;53.174;18.160;2023-05-24T12:19:53;8.90;;;5.20;;
76228;SDS011;65021;53.174;18.160;2023-05-24T12:22:25;7.00;;;4.20;;
76228;SDS011;65021;53.174;18.160;2023-05-24T12:24:53;7.50;;;3.90;;
76228;SDS011;65021;53.174;18.160;2023-05-24T12:27:22;7.10;;;4.60;;
76228;SDS011;65021;53.174;18.160;2023-05-24T12:29:52;7.10;;;5.10;;
76228;SDS011;65021;53.174;18.160;2023-05-24T12:32:19;6.10;;;4.00;;
76228;SDS011;65021;53.174;18.160;2023-05-24T12:34:45;7.90;;;5.50;;
76228;SDS011;65021;53.174;18.160;2023-05-24T12:37:15;6.80;;;4.10;;
76228;SDS011;65021;53.174;18.160;2023-05-24T12:39:43;6.20;;;3.30;;
76228;SDS011;65021;53.174;18.160;2023-05-24T12:42:10;6.90;;;4.40;;
76228;SDS011;65021;53.174;18.160;2023-05-24T12:44:38;6.30;;;3.90;;
76228;SDS011;65021;53.174;18.160;2023-05-24T12:47:06;8.00;;;4.40;;
76228;SDS011;65021;53.174;18.160;2023-05-24T12:49:33;5.50;;;3.40;;
76228;SDS011;65021;53.174;18.160;2023-05-24T12:52:00;7.10;;;4.40;;
76228;SDS011;65021;53.174;18.160;2023-05-24T12:54:29;6.30;;;3.50;;
76228;SDS011;65021;53.174;18.160;2023-05-24T12:56:57;7.60;;;4.70;;
76228;SDS011;65021;53.174;18.160;2023-05-24T12:59:28;7.00;;;4.20;;
76228;SDS011;65021;53.174;18.160;2023-05-24T13:01:55;7.50;;;2.80;;
76228;SDS011;65021;53.174;18.160;2023-05-24T13:04:22;6.90;;;3.50;;
76228;SDS011;65021;53.174;18.160;2023-05-24T13:06:51;9.30;;;4.50;;
76228;SDS011;65021;53.174;18.160;2023-05-24T13:09:17;7.00;;;4.70;;
76228;SDS011;65021;53.174;18.160;2023-05-24T13:14:12;8.50;;;4.20;;
76228;SDS011;65021;53.174;18.160;2023-05-24T13:16:41;8.00;;;4.60;;
76228;SDS011;65021;53.174;18.160;2023-05-24T13:19:09;5.40;;;3.30;;
76228;SDS011;65021;53.174;18.160;2023-05-24T13:21:35;7.80;;;4.30;;
76228;SDS011;65021;53.174;18.160;2023-05-24T13:24:02;7.80;;;4.20;;
76228;SDS011;65021;53.174;18.160;2023-05-24T13:26:30;7.90;;;4.40;;
76228;SDS011;65021;53.174;18.160;2023-05-24T13:29:02;10.30;;;5.60;;
76228;SDS011;65021;53.174;18.160;2023-05-24T13:31:30;6.30;;;3.70;;
76228;SDS011;65021;53.174;18.160;2023-05-24T13:33:57;6.30;;;3.30;;
76228;SDS011;65021;53.174;18.160;2023-05-24T13:36:23;6.20;;;3.90;;
76228;SDS011;65021;53.174;18.160;2023-05-24T13:38:50;8.50;;;4.70;;
76228;SDS011;65021;53.174;18.160;2023-05-24T13:41:17;10.50;;;6.30;;
76228;SDS011;65021;53.174;18.160;2023-05-24T13:43:43;7.80;;;5.00;;
76228;SDS011;65021;53.174;18.160;2023-05-24T13:46:10;8.00;;;4.50;;
76228;SDS011;65021;53.174;18.160;2023-05-24T13:48:38;7.30;;;4.60;;
76228;SDS011;65021;53.174;18.160;2023-05-24T13:51:04;5.80;;;3.40;;
76228;SDS011;65021;53.174;18.160;2023-05-24T13:53:31;6.40;;;4.50;;
76228;SDS011;65021;53.174;18.160;2023-05-24T13:55:57;16.60;;;5.70;;
76228;SDS011;65021;53.174;18.160;2023-05-24T13:58:24;6.20;;;4.00;;
76228;SDS011;65021;53.174;18.160;2023-05-24T14:00:51;7.10;;;4.20;;
76228;SDS011;65021;53.174;18.160;2023-05-24T14:03:18;5.60;;;3.50;;
76228;SDS011;65021;53.174;18.160;2023-05-24T14:05:44;7.30;;;5.30;;
76228;SDS011;65021;53.174;18.160;2023-05-24T14:08:11;6.40;;;4.70;;
76228;SDS011;65021;53.174;18.160;2023-05-24T14:10:38;7.50;;;4.80;;
76228;SDS011;65021;53.174;18.160;2023-05-24T14:13:04;8.10;;;4.80;;
76228;SDS011;65021;53.174;18.160;2023-05-24T14:15:32;6.90;;;4.90;;
76228;SDS011;65021;53.174;18.160;2023-05-24T14:17:59;5.90;;;4.10;;
76228;SDS011;65021;53.174;18.160;2023-05-24T14:20:33;9.30;;;5.00;;
76228;SDS011;65021;53.174;18.160;2023-05-24T14:23:08;7.30;;;4.00;;
76228;SDS011;65021;53.174;18.160;2023-05-24T14:25:35;10.30;;;4.60;;
76228;SDS011;65021;53.174;18.160;2023-05-24T14:28:01;6.20;;;3.90;;
76228;SDS011;65021;53.174;18.160;2023-05-24T14:30:33;5.90;;;4.60;;
76228;SDS011;65021;53.174;18.160;2023-05-24T14:33:02;6.20;;;4.10;;
76228;SDS011;65021;53.174;18.160;2023-05-24T14:35:31;7.60;;;5.70;;
76228;SDS011;65021;53.174;18.160;2023-05-24T14:38:03;9.90;;;6.30;;
76228;SDS011;65021;53.174;18.160;2023-05-24T14:40:31;8.60;;;5.70;;
76228;SDS011;65021;53.174;18.160;2023-05-24T14:43:03;8.80;;;6.30;;
76228;SDS011;65021;53.174;18.160;2023-05-24T14:45:30;8.70;;;6.20;;
76228;SDS011;65021;53.174;18.160;2023-05-24T14:47:57;7.90;;;6.00;;
76228;SDS011;65021;53.174;18.160;2023-05-24T14:50:24;9.40;;;4.40;;
76228;SDS011;65021;53.174;18.160;2023-05-24T14:52:51;7.80;;;5.70;;
76228;SDS011;65021;53.174;18.160;2023-05-24T14:55:18;5.80;;;3.50;;
76228;SDS011;65021;53.174;18.160;2023-05-24T14:57:44;8.50;;;6.50;;
76228;SDS011;65021;53.174;18.160;2023-05-24T15:00:11;6.90;;;5.30;;
76228;SDS011;65021;53.174;18.160;2023-05-24T15:02:38;8.30;;;5.90;;
76228;SDS011;65021;53.174;18.160;2023-05-24T15:05:05;9.40;;;6.10;;
76228;SDS011;65021;53.174;18.160;2023-05-24T15:07:32;8.60;;;5.90;;